createdAt,value
2022-08-07T00:01:44.288Z,10.50
2022-08-07T00:04:09.518Z,12.10
2022-08-07T00:06:40.930Z,11.20
2022-08-07T00:09:29.217Z,11.30
2022-08-07T00:12:03.861Z,11.70
2022-08-07T00:14:32.402Z,11.60
2022-08-07T00:17:01.862Z,11.90
2022-08-07T00:20:00.360Z,11.80
2022-08-07T00:22:24.527Z,11.00
2022-08-07T00:25:07.030Z,11.70
2022-08-07T00:27:53.274Z,11.80
2022-08-07T00:30:26.986Z,11.90
2022-08-07T00:33:02.061Z,11.20
2022-08-07T00:35:30.635Z,11.20
2022-08-07T00:37:59.220Z,12.00
2022-08-07T00:40:39.358Z,10.70
2022-08-07T00:43:59.373Z,12.00
2022-08-07T00:46:01.889Z,10.60
2022-08-07T00:48:32.249Z,11.20
2022-08-07T00:51:02.260Z,11.00
2022-08-07T00:53:38.836Z,13.70
2022-08-07T00:56:18.295Z,12.30
2022-08-07T00:58:47.417Z,12.00
2022-08-07T01:01:19.923Z,10.90
2022-08-07T01:03:56.150Z,11.20
2022-08-07T01:06:28.837Z,11.00
2022-08-07T01:08:58.569Z,12.00
2022-08-07T01:12:27.438Z,11.70
2022-08-07T01:14:28.879Z,12.20
2022-08-07T01:16:58.757Z,11.50
2022-08-07T01:19:32.414Z,12.50
2022-08-07T01:22:01.072Z,12.00
2022-08-07T01:24:38.332Z,11.30
2022-08-07T01:27:06.910Z,11.80
2022-08-07T01:29:48.501Z,11.60
2022-08-07T01:32:19.851Z,18.50
2022-08-07T01:34:51.580Z,12.10
2022-08-07T01:37:19.268Z,11.20
2022-08-07T01:39:49.837Z,11.30
2022-08-07T01:42:38.433Z,11.80
2022-08-07T01:45:22.704Z,12.30
2022-08-07T01:48:21.583Z,14.00
2022-08-07T01:50:42.968Z,15.90
2022-08-07T01:53:21.125Z,15.10
2022-08-07T01:56:06.173Z,13.10
2022-08-07T01:59:09.385Z,12.50
2022-08-07T02:02:01.893Z,13.00
2022-08-07T02:04:52.567Z,12.30
2022-08-07T02:07:50.134Z,12.60
2022-08-07T02:10:25.263Z,12.50
2022-08-07T02:12:57.371Z,12.20
2022-08-07T02:15:33.975Z,12.10
2022-08-07T02:18:02.866Z,11.90
2022-08-07T02:20:32.843Z,12.00
2022-08-07T02:23:05.356Z,11.50
2022-08-07T02:26:30.414Z,12.90
2022-08-07T02:28:27.024Z,12.00
2022-08-07T02:30:58.782Z,14.60
2022-08-07T02:33:41.956Z,12.50
2022-08-07T02:36:29.162Z,14.30
2022-08-07T02:39:09.441Z,11.50
2022-08-07T02:41:50.570Z,13.10
2022-08-07T02:44:24.115Z,14.40
2022-08-07T02:46:57.094Z,16.30
2022-08-07T02:49:28.603Z,13.10
2022-08-07T02:51:59.275Z,14.10
2022-08-07T02:54:29.034Z,12.80
2022-08-07T02:57:01.355Z,12.70
2022-08-07T02:59:31.898Z,12.70
2022-08-07T03:02:02.581Z,16.70
2022-08-07T03:04:30.859Z,16.30
2022-08-07T03:07:07.153Z,17.60
2022-08-07T03:09:43.559Z,13.10
2022-08-07T03:12:22.707Z,12.30
2022-08-07T03:15:02.381Z,14.30
2022-08-07T03:17:53.335Z,12.70
2022-08-07T03:20:24.025Z,14.00
2022-08-07T03:22:53.674Z,16.00
2022-08-07T03:25:23.411Z,13.30
2022-08-07T03:27:59.098Z,12.50
2022-08-07T03:30:37.430Z,12.30
2022-08-07T03:33:08.645Z,12.50
2022-08-07T03:35:44.151Z,15.30
2022-08-07T03:38:21.243Z,12.90
2022-08-07T03:40:53.951Z,13.00
2022-08-07T03:43:26.801Z,12.40
2022-08-07T03:46:02.981Z,12.80
2022-08-07T03:48:33.570Z,12.90
2022-08-07T03:51:13.984Z,15.40
2022-08-07T03:54:05.713Z,14.10
2022-08-07T03:56:33.307Z,12.80
2022-08-07T03:59:09.813Z,14.50
2022-08-07T04:01:45.546Z,12.30
2022-08-07T04:04:17.615Z,12.00
2022-08-07T04:06:46.563Z,12.20
2022-08-07T04:09:23.432Z,15.10
2022-08-07T04:12:23.412Z,12.00
2022-08-07T04:14:47.822Z,15.40
2022-08-07T04:17:20.761Z,13.00
2022-08-07T04:19:55.233Z,13.90
2022-08-07T04:22:30.013Z,13.70
2022-08-07T04:25:01.813Z,12.50
2022-08-07T04:27:35.460Z,13.30
2022-08-07T04:30:35.641Z,15.20
2022-08-07T04:33:07.445Z,13.60
2022-08-07T04:35:37.537Z,13.50
2022-08-07T04:38:09.231Z,12.60
2022-08-07T04:40:52.732Z,12.40
2022-08-07T04:44:11.964Z,15.00
2022-08-07T04:46:59.581Z,12.30
2022-08-07T04:50:04.146Z,13.60
2022-08-07T04:52:53.578Z,12.10
2022-08-07T04:58:38.757Z,13.30
2022-08-07T05:02:08.690Z,13.60
2022-08-07T05:05:11.894Z,12.10
2022-08-07T05:08:08.423Z,11.80
2022-08-07T05:10:51.174Z,13.80
2022-08-07T05:14:55.213Z,11.40
2022-08-07T05:16:25.772Z,11.30
2022-08-07T05:18:56.583Z,11.70
2022-08-07T05:22:00.247Z,12.30
2022-08-07T05:24:17.508Z,11.50
2022-08-07T05:26:47.237Z,12.60
2022-08-07T05:29:17.230Z,12.40
2022-08-07T05:31:51.207Z,11.50
2022-08-07T05:34:26.302Z,12.90
2022-08-07T05:36:55.554Z,11.40
2022-08-07T05:40:05.457Z,12.30
2022-08-07T05:42:34.269Z,11.40
2022-08-07T05:45:26.327Z,13.40
2022-08-07T05:48:16.579Z,11.90
2022-08-07T05:50:46.041Z,11.80
2022-08-07T05:54:14.151Z,12.00
2022-08-07T05:56:06.234Z,16.70
2022-08-07T05:58:52.316Z,17.10
2022-08-07T06:01:27.458Z,17.80
2022-08-07T06:04:10.468Z,13.20
2022-08-07T06:06:46.416Z,14.20
2022-08-07T06:09:16.767Z,12.20
2022-08-07T06:11:46.534Z,12.20
2022-08-07T06:14:20.999Z,16.20
2022-08-07T06:16:55.818Z,12.60
2022-08-07T06:19:52.005Z,17.70
2022-08-07T06:22:50.555Z,13.00
2022-08-07T06:25:34.843Z,15.10
2022-08-07T06:28:14.212Z,13.90
2022-08-07T06:30:45.868Z,14.60
2022-08-07T06:33:17.889Z,17.20
2022-08-07T06:36:06.101Z,17.50
2022-08-07T06:38:35.162Z,15.00
2022-08-07T06:41:13.022Z,13.90
2022-08-07T06:43:46.447Z,12.60
2022-08-07T06:46:35.124Z,12.20
2022-08-07T06:49:05.162Z,13.80
2022-08-07T06:51:49.605Z,15.60
2022-08-07T06:55:32.586Z,35.60
2022-08-07T06:57:09.239Z,14.20
2022-08-07T07:00:13.789Z,16.20
2022-08-07T07:02:53.496Z,15.20
2022-08-07T07:06:03.615Z,50.10
2022-08-07T07:08:12.453Z,15.70
2022-08-07T07:10:54.951Z,17.40
2022-08-07T07:13:55.872Z,19.20
2022-08-07T07:16:30.277Z,14.30
2022-08-07T07:19:23.606Z,15.10
2022-08-07T07:22:04.825Z,16.70
2022-08-07T07:24:43.004Z,18.30
2022-08-07T07:27:35.571Z,18.80
2022-08-07T07:30:32.483Z,15.60
2022-08-07T07:33:01.373Z,15.50
2022-08-07T07:35:33.477Z,18.10
2022-08-07T07:38:05.758Z,15.90
2022-08-07T07:40:34.138Z,13.60
2022-08-07T07:43:15.306Z,14.00
2022-08-07T07:46:36.868Z,14.90
2022-08-07T07:48:36.481Z,15.70
2022-08-07T07:51:07.708Z,13.50
2022-08-07T07:56:30.531Z,12.90
2022-08-07T07:59:04.377Z,12.00
2022-08-07T08:02:02.944Z,14.40
2022-08-07T08:04:25.718Z,12.10
2022-08-07T08:06:54.929Z,13.10
2022-08-07T08:09:25.948Z,12.30
2022-08-07T08:12:02.622Z,11.60
2022-08-07T08:14:34.247Z,12.90
2022-08-07T08:17:56.094Z,10.20
2022-08-07T08:20:17.446Z,12.60
2022-08-07T08:23:09.280Z,11.50
2022-08-07T08:25:58.481Z,13.30
2022-08-07T08:28:37.398Z,10.30
2022-08-07T08:32:16.729Z,9.30
2022-08-07T08:34:32.870Z,9.60
2022-08-07T08:37:02.967Z,8.90
2022-08-07T08:39:39.832Z,9.20
2022-08-07T08:42:52.863Z,10.40
2022-08-07T08:45:59.219Z,9.80
2022-08-07T08:48:42.472Z,19.40
2022-08-07T08:52:00.892Z,11.40
2022-08-07T08:54:50.812Z,10.00
2022-08-07T08:57:38.052Z,12.10
2022-08-07T09:00:12.264Z,7.90
2022-08-07T09:02:40.310Z,12.10
2022-08-07T09:05:37.810Z,12.50
2022-08-07T09:08:28.454Z,8.60
2022-08-07T09:11:24.296Z,9.50
2022-08-07T09:14:20.329Z,11.70
2022-08-07T09:16:57.631Z,10.70
2022-08-07T09:20:35.968Z,9.90
2022-08-07T09:24:54.123Z,11.10
2022-08-07T09:26:27.776Z,9.90
2022-08-07T09:30:06.615Z,11.10
2022-08-07T09:33:05.710Z,9.70
2022-08-07T09:36:35.067Z,13.40
2022-08-07T09:39:54.218Z,9.30
2022-08-07T09:42:11.902Z,10.10
2022-08-07T09:47:24.017Z,9.30
2022-08-07T09:48:29.709Z,25.80
2022-08-07T09:51:25.926Z,18.80
2022-08-07T09:54:02.631Z,10.30
2022-08-07T09:56:51.724Z,10.30
2022-08-07T09:59:44.355Z,11.00
2022-08-07T10:02:55.387Z,13.60
2022-08-07T10:06:12.264Z,9.60
2022-08-07T10:09:15.171Z,11.70
2022-08-07T10:12:53.115Z,11.20
2022-08-07T10:16:09.755Z,10.30
2022-08-07T10:19:24.674Z,10.10
2022-08-07T10:22:24.868Z,11.30
2022-08-07T10:25:22.661Z,22.20
2022-08-07T10:28:17.386Z,11.30
2022-08-07T10:31:31.464Z,13.00
2022-08-07T10:34:37.712Z,9.70
2022-08-07T10:38:21.211Z,8.00
2022-08-07T10:41:04.182Z,12.00
2022-08-07T10:43:43.031Z,26.50
2022-08-07T10:46:20.011Z,12.70
2022-08-07T10:49:49.095Z,10.60
2022-08-07T10:52:55.303Z,18.50
2022-08-07T10:55:37.971Z,18.90
2022-08-07T10:58:48.181Z,9.90
2022-08-07T11:02:12.447Z,8.00
2022-08-07T11:05:50.780Z,17.70
2022-08-07T11:08:32.431Z,8.80
2022-08-07T11:11:25.464Z,15.30
2022-08-07T11:14:44.915Z,8.10
2022-08-07T11:17:42.597Z,5.90
2022-08-07T11:20:19.910Z,7.40
2022-08-07T11:23:36.598Z,7.20
2022-08-07T11:26:48.096Z,12.80
2022-08-07T11:30:10.051Z,7.40
2022-08-07T11:33:01.269Z,9.30
2022-08-07T11:36:10.444Z,7.90
2022-08-07T11:38:59.814Z,6.60
2022-08-07T11:42:00.433Z,6.20
2022-08-07T11:45:35.561Z,10.10
2022-08-07T11:48:29.129Z,7.20
2022-08-07T11:51:41.340Z,7.60
2022-08-07T11:54:46.485Z,8.20
2022-08-07T11:57:57.877Z,8.80
2022-08-07T12:01:02.238Z,5.80
2022-08-07T12:03:49.641Z,7.80
2022-08-07T12:06:39.027Z,9.30
2022-08-07T12:09:09.639Z,10.00
2022-08-07T12:12:09.179Z,9.70
2022-08-07T12:15:01.200Z,8.70
2022-08-07T12:17:39.228Z,5.10
2022-08-07T12:20:36.525Z,8.60
2022-08-07T12:23:21.396Z,7.40
2022-08-07T12:26:41.986Z,8.50
2022-08-07T12:30:04.626Z,11.90
2022-08-07T12:32:58.586Z,6.90
2022-08-07T12:35:26.979Z,10.50
2022-08-07T12:38:11.339Z,5.80
2022-08-07T12:40:50.397Z,7.70
2022-08-07T12:44:01.381Z,6.10
2022-08-07T12:46:41.284Z,8.30
2022-08-07T12:49:51.567Z,10.00
2022-08-07T12:52:41.728Z,8.00
2022-08-07T12:56:02.762Z,12.50
2022-08-07T12:58:37.053Z,9.80
2022-08-07T13:01:32.057Z,5.80
2022-08-07T13:04:31.707Z,5.80
2022-08-07T13:08:13.945Z,7.60
2022-08-07T13:11:01.825Z,8.00
2022-08-07T13:13:55.152Z,6.10
2022-08-07T13:16:41.271Z,8.20
2022-08-07T13:19:50.886Z,5.80
2022-08-07T13:22:53.367Z,5.30
2022-08-07T13:25:30.641Z,9.40
2022-08-07T13:28:14.294Z,5.80
2022-08-07T13:31:13.333Z,6.30
2022-08-07T13:34:33.414Z,7.70
2022-08-07T13:36:44.880Z,5.40
2022-08-07T13:40:36.276Z,5.70
2022-08-07T13:42:53.190Z,4.90
2022-08-07T13:48:27.454Z,5.50
2022-08-07T13:51:00.221Z,4.30
2022-08-07T13:56:36.274Z,6.90
2022-08-07T13:59:21.943Z,8.40
2022-08-07T14:02:08.072Z,7.00
2022-08-07T14:04:54.437Z,6.50
2022-08-07T14:08:01.360Z,6.00
2022-08-07T14:10:44.827Z,5.00
2022-08-07T14:13:33.189Z,5.80
2022-08-07T14:16:06.379Z,7.20
2022-08-07T14:18:56.748Z,5.80
2022-08-07T14:22:03.093Z,6.40
2022-08-07T14:24:35.459Z,6.40
2022-08-07T14:27:16.169Z,4.70
2022-08-07T14:30:08.091Z,5.50
2022-08-07T14:32:50.501Z,5.30
2022-08-07T14:35:45.349Z,6.80
2022-08-07T14:38:26.839Z,6.30
2022-08-07T14:43:55.512Z,4.70
2022-08-07T14:46:32.004Z,5.30
2022-08-07T14:49:56.086Z,6.70
2022-08-07T14:52:05.032Z,5.60
2022-08-07T14:54:42.154Z,4.10
2022-08-07T14:57:19.665Z,6.10
2022-08-07T15:00:03.172Z,8.50
2022-08-07T15:02:39.405Z,5.70
2022-08-07T15:05:20.084Z,6.10
2022-08-07T15:08:05.063Z,8.10
2022-08-07T15:10:36.645Z,5.20
2022-08-07T15:13:18.313Z,6.90
2022-08-07T15:15:52.198Z,5.70
2022-08-07T15:18:46.362Z,5.40
2022-08-07T15:25:13.285Z,5.70
2022-08-07T15:27:16.831Z,8.50
2022-08-07T15:30:08.844Z,4.50
2022-08-07T15:32:50.672Z,5.80
2022-08-07T15:36:00.841Z,4.60
2022-08-07T15:41:24.422Z,4.30
2022-08-07T15:44:14.714Z,6.50
2022-08-07T15:50:04.282Z,5.40
2022-08-07T15:52:30.782Z,7.20
2022-08-07T15:55:03.865Z,3.60
2022-08-07T15:57:39.946Z,3.90
2022-08-07T16:00:31.078Z,6.20
2022-08-07T16:03:46.111Z,7.10
2022-08-07T16:06:16.650Z,5.60
2022-08-07T16:08:46.433Z,2.90
2022-08-07T16:11:42.933Z,4.70
2022-08-07T16:14:53.686Z,3.00
2022-08-07T16:18:01.926Z,5.10
2022-08-07T16:22:01.593Z,2.70
2022-08-07T16:24:34.420Z,2.80
2022-08-07T16:27:18.642Z,3.00
2022-08-07T16:30:11.085Z,4.80
2022-08-07T16:34:02.073Z,4.80
2022-08-07T16:36:19.898Z,3.50
2022-08-07T16:39:49.379Z,3.60
2022-08-07T16:42:47.873Z,3.60
2022-08-07T16:46:21.331Z,5.80
2022-08-07T16:50:27.053Z,2.60
2022-08-07T16:52:50.771Z,3.60
2022-08-07T16:55:50.324Z,5.20
2022-08-07T16:59:10.804Z,3.30
2022-08-07T17:02:08.999Z,2.80
2022-08-07T17:06:19.514Z,7.00
2022-08-07T17:09:09.807Z,3.80
2022-08-07T17:12:05.170Z,6.30
2022-08-07T17:14:48.724Z,2.50
2022-08-07T17:17:46.411Z,5.00
2022-08-07T17:20:21.438Z,5.20
2022-08-07T17:23:40.179Z,4.80
2022-08-07T17:26:23.419Z,3.30
2022-08-07T17:29:09.102Z,2.70
2022-08-07T17:32:03.211Z,4.50
2022-08-07T17:35:40.706Z,5.70
2022-08-07T17:38:09.428Z,3.80
2022-08-07T17:40:43.997Z,12.00
2022-08-07T17:44:00.956Z,3.60
2022-08-07T17:46:43.150Z,3.30
2022-08-07T17:49:44.514Z,6.30
2022-08-07T17:52:35.298Z,5.50
2022-08-07T17:55:16.634Z,4.90
2022-08-07T17:58:08.426Z,4.70
2022-08-07T18:00:48.782Z,4.90
2022-08-07T18:09:08.540Z,3.40
2022-08-07T18:12:16.539Z,7.00
2022-08-07T18:15:00.341Z,4.20
2022-08-07T18:18:46.178Z,6.80
2022-08-07T18:21:02.972Z,5.50
2022-08-07T18:23:58.500Z,6.20
2022-08-07T18:26:56.513Z,7.30
2022-08-07T18:30:04.302Z,5.50
2022-08-07T18:33:30.432Z,5.20
2022-08-07T18:36:53.681Z,5.60
2022-08-07T18:40:06.407Z,5.90
2022-08-07T18:42:54.407Z,4.20
2022-08-07T18:46:25.016Z,3.70
2022-08-07T18:50:31.321Z,3.70
2022-08-07T18:52:34.592Z,5.00
2022-08-07T18:54:49.718Z,3.70
2022-08-07T18:57:43.801Z,6.60
2022-08-07T19:01:02.029Z,3.80
2022-08-07T19:03:52.363Z,4.10
2022-08-07T19:06:48.897Z,5.60
2022-08-07T19:09:59.027Z,4.40
2022-08-07T19:12:53.642Z,7.20
2022-08-07T19:16:05.131Z,5.00
2022-08-07T19:19:13.174Z,5.20
2022-08-07T19:22:31.150Z,5.20
2022-08-07T19:25:06.923Z,4.20
2022-08-07T19:28:30.249Z,5.00
2022-08-07T19:31:03.461Z,6.60
2022-08-07T19:33:34.859Z,5.50
2022-08-07T19:36:04.511Z,7.70
2022-08-07T19:38:35.201Z,5.10
2022-08-07T19:41:44.305Z,5.30
2022-08-07T19:44:21.578Z,5.70
2022-08-07T19:46:55.868Z,4.80
2022-08-07T19:49:57.073Z,6.70
2022-08-07T19:52:18.762Z,6.10
2022-08-07T19:54:56.323Z,6.20
2022-08-07T19:58:02.556Z,6.70
2022-08-07T20:00:34.494Z,8.20
2022-08-07T20:03:34.603Z,4.60
2022-08-07T20:06:02.683Z,4.90
2022-08-07T20:08:34.103Z,8.30
2022-08-07T20:11:10.054Z,4.40
2022-08-07T20:13:50.647Z,6.30
2022-08-07T20:16:35.568Z,5.30
2022-08-07T20:19:10.378Z,4.40
2022-08-07T20:21:47.411Z,4.50
2022-08-07T20:24:24.045Z,6.10
2022-08-07T20:27:04.344Z,5.60
2022-08-07T20:29:49.433Z,5.70
2022-08-07T20:32:39.994Z,6.00
2022-08-07T20:35:26.264Z,4.30
2022-08-07T20:37:59.708Z,4.50
2022-08-07T20:40:40.587Z,6.80
2022-08-07T20:43:19.217Z,5.20
2022-08-07T20:46:26.008Z,4.30
2022-08-07T20:48:57.951Z,7.80
2022-08-07T20:51:30.496Z,4.60
2022-08-07T20:54:11.754Z,3.90
2022-08-07T20:56:41.886Z,5.80
2022-08-07T21:00:04.219Z,4.60
2022-08-07T21:02:32.826Z,5.90
2022-08-07T21:05:04.464Z,4.40
2022-08-07T21:07:39.067Z,3.90
2022-08-07T21:10:11.615Z,4.70
2022-08-07T21:15:10.211Z,4.80
2022-08-07T21:18:04.020Z,5.00
2022-08-07T21:20:39.236Z,6.20
2022-08-07T21:23:29.252Z,3.90
2022-08-07T21:26:08.788Z,11.30
2022-08-07T21:28:58.265Z,4.90
2022-08-07T21:31:49.933Z,5.10
2022-08-07T21:34:46.328Z,5.60
2022-08-07T21:37:58.465Z,5.20
2022-08-07T21:40:47.478Z,6.90
2022-08-07T21:44:03.644Z,7.90
2022-08-07T21:46:37.228Z,6.20
2022-08-07T21:49:26.827Z,4.70
2022-08-07T21:52:17.680Z,3.90
2022-08-07T21:55:29.916Z,4.80
2022-08-07T21:58:29.934Z,4.00
2022-08-07T22:01:13.988Z,5.10
2022-08-07T22:03:47.626Z,5.40
2022-08-07T22:06:30.424Z,5.50
2022-08-07T22:09:12.019Z,6.10
2022-08-07T22:12:05.050Z,4.60
2022-08-07T22:15:00.079Z,7.00
2022-08-07T22:17:59.151Z,5.40
2022-08-07T22:20:44.543Z,7.40
2022-08-07T22:23:46.467Z,4.80
2022-08-07T22:26:30.769Z,5.90
2022-08-07T22:29:50.177Z,5.10
2022-08-07T22:32:43.955Z,5.30
2022-08-07T22:35:11.707Z,7.90
2022-08-07T22:38:25.862Z,5.60
2022-08-07T22:42:18.786Z,8.30
2022-08-07T22:44:21.428Z,6.70
2022-08-07T22:47:04.188Z,5.30
2022-08-07T22:50:03.876Z,4.70
2022-08-07T22:53:17.344Z,6.70
2022-08-07T22:56:00.689Z,5.10
2022-08-07T22:59:16.766Z,9.20
2022-08-07T23:02:17.677Z,6.80
2022-08-07T23:06:07.730Z,7.30
2022-08-07T23:08:30.324Z,7.10
2022-08-07T23:11:22.282Z,6.30
2022-08-07T23:14:15.958Z,8.20
2022-08-07T23:17:08.616Z,6.30
2022-08-07T23:20:40.803Z,9.60
2022-08-07T23:24:06.858Z,10.00
2022-08-07T23:27:12.968Z,5.70
2022-08-07T23:30:37.207Z,7.80
2022-08-07T23:34:34.331Z,5.70
2022-08-07T23:37:23.465Z,6.10
2022-08-07T23:40:39.670Z,5.20
2022-08-07T23:43:37.861Z,5.50
2022-08-07T23:46:43.855Z,7.40
2022-08-07T23:49:58.135Z,6.80
2022-08-07T23:53:01.266Z,7.70
2022-08-07T23:56:11.974Z,4.60
